Ames, Oklahoma
Current Conditions -  °F | °C
As of 9:58 PM on Thursday 18 Dec 2014 (Local Time) from KEND Reporting Station
Overcast Overcast  
Wind Chill: 29°   Ceiling: 800
Heat Index: 36°   Visibility: 10mi
Dew Point: 33°   Wind: 8mph
Humidity: 91%   Direction: 10°N
Pressure: 30.22"   Gusts: NA
Location:  36.25°N, 98.19°W
Report Text: KEND 190358Z AUTO 01007KT 10SM OVC008 02/01 A3022 RMK AO2 SLP244 T00210007 $
Loading
Personal Weather Stations






























Interactive Weather Map New forecast layout! Learn more

10-Day Weather Forecast

Advertisements
Track Severe Weather on mobile